Time;durP1;ratioP1;P1;durP2;ratioP2;P2;SDS_P1;SDS_P2;PMS_P1;PMS_P2;Temp;Humidity;BMP_temperature;BMP_pressure;BME280_temperature;BME280_humidity;BME280_pressure;Samples;Min_cycle;Max_cycle;Signal;HPM_P1;HPM_P2
2023/07/28 00:02:07;;;;;;;13.55;9.10;;;410.30;2355.20;;;;;;5032684;28;20540;-77
2023/07/28 00:04:36;;;;;;;13.00;8.68;;;410.40;2355.20;;;;;;5031662;28;20041;-77
2023/07/28 00:07:02;;;;;;;10.77;7.32;;;410.40;2355.20;;;;;;5033052;28;20117;-77
2023/07/28 00:09:28;;;;;;;7.93;4.60;;;410.40;2355.20;;;;;;5031527;28;20106;-76
2023/07/28 00:11:55;;;;;;;9.73;5.93;;;410.30;2355.20;;;;;;5031380;28;20451;-75
2023/07/28 00:14:21;;;;;;;12.00;5.78;;;410.30;2355.20;;;;;;5029915;28;20108;-77
2023/07/28 00:16:47;;;;;;;9.65;5.90;;;410.20;2355.20;;;;;;5039689;28;20108;-77
2023/07/28 00:19:13;;;;;;;9.48;7.07;;;410.30;2355.20;;;;;;5021425;28;20108;-77
2023/07/28 00:21:42;;;;;;;9.43;6.43;;;410.20;2355.20;;;;;;5036321;28;20040;-77
2023/07/28 00:24:07;;;;;;;5.75;4.25;;;410.20;2355.20;;;;;;5018365;28;20029;-78
2023/07/28 00:26:33;;;;;;;6.15;3.72;;;410.20;2355.20;;;;;;5015546;28;20041;-76
2023/07/28 00:28:59;;;;;;;8.77;4.18;;;410.00;2355.20;;;;;;5036640;28;20037;-77
2023/07/28 00:31:27;;;;;;;7.05;4.65;;;410.00;2355.20;;;;;;5035693;28;20059;-76
2023/07/28 00:33:53;;;;;;;7.57;4.72;;;409.60;2355.20;;;;;;5025433;28;20063;-78
2023/07/28 00:36:19;;;;;;;6.00;4.50;;;409.80;2355.20;;;;;;5036787;28;20060;-77
2023/07/28 00:38:45;;;;;;;8.02;4.38;;;409.80;2355.20;;;;;;5014971;28;20109;-77
2023/07/28 00:41:10;;;;;;;7.68;5.53;;;409.80;2355.20;;;;;;5038469;28;20470;-77
2023/07/28 00:43:36;;;;;;;6.15;3.50;;;409.80;2355.20;;;;;;5040858;28;20566;-76
2023/07/28 00:46:02;;;;;;;8.10;4.82;;;409.90;2355.20;;;;;;5036442;28;20109;-77
2023/07/28 00:48:28;;;;;;;6.32;3.60;;;409.80;2355.20;;;;;;5034508;28;20029;-77
2023/07/28 00:50:54;;;;;;;6.95;3.60;;;409.80;2355.20;;;;;;5032378;28;20033;-78
2023/07/28 00:53:21;;;;;;;5.55;3.53;;;409.80;2355.20;;;;;;5033917;28;20021;-78
2023/07/28 00:55:46;;;;;;;5.78;3.42;;;409.60;2355.20;;;;;;5030244;28;20046;-78
2023/07/28 00:58:12;;;;;;;4.82;3.30;;;409.60;2355.20;;;;;;4996471;28;20061;-78
2023/07/28 01:00:38;;;;;;;5.40;3.30;;;409.60;2355.20;;;;;;5014202;28;20077;-76
2023/07/28 01:03:04;;;;;;;5.20;3.13;;;384.90;2329.60;;;;;;4996362;28;20042;-77
2023/07/28 01:06:03;;;;;;;5.57;3.53;;;384.90;2329.60;;;;;;5014203;28;20052;-78
2023/07/28 01:08:41;;;;;;;5.50;3.10;;;384.90;2329.60;;;;;;5033475;28;20069;-78
2023/07/28 01:11:06;;;;;;;4.90;3.13;;;384.90;2329.60;;;;;;5031052;28;20107;-78
2023/07/28 01:13:32;;;;;;;4.47;3.30;;;384.80;2329.60;;;;;;5033382;28;20014;-77
2023/07/28 01:16:00;;;;;;;5.75;3.70;;;384.80;2329.60;;;;;;5033075;28;20120;-78
2023/07/28 01:18:27;;;;;;;6.05;3.80;;;384.80;2329.60;;;;;;5033859;28;20467;-77
2023/07/28 01:20:57;;;;;;;7.70;4.25;;;384.90;2329.60;;;;;;5033568;28;20108;-77
2023/07/28 01:24:00;;;;;;;6.05;3.63;;;384.90;2329.60;;;;;;5033396;28;20086;-76
2023/07/28 01:26:37;;;;;;;8.73;3.50;;;384.90;2329.60;;;;;;4991544;28;20041;-78
2023/07/28 01:29:04;;;;;;;6.15;3.40;;;384.90;2329.60;;;;;;4989844;28;20118;-75
2023/07/28 01:31:31;;;;;;;6.63;3.50;;;384.80;2329.60;;;;;;4990746;28;20044;-75
2023/07/28 01:33:56;;;;;;;5.90;3.80;;;384.80;2329.60;;;;;;4997452;28;20408;-75
2023/07/28 01:36:22;;;;;;;6.28;3.55;;;384.60;2329.60;;;;;;5000443;28;20042;-74
2023/07/28 01:38:48;;;;;;;7.50;4.30;;;384.60;2329.60;;;;;;4990644;28;20061;-75
2023/07/28 01:41:14;;;;;;;6.82;4.10;;;384.40;2329.60;;;;;;4995505;28;20042;-76
2023/07/28 01:43:39;;;;;;;8.02;4.07;;;384.30;2329.60;;;;;;4991577;28;20497;-75
2023/07/28 01:46:05;;;;;;;5.95;4.22;;;384.10;2329.60;;;;;;4989215;28;20155;-76
2023/07/28 01:48:31;;;;;;;6.50;3.95;;;384.20;2329.60;;;;;;4980648;28;20452;-75
2023/07/28 01:50:57;;;;;;;6.63;4.30;;;384.10;2329.60;;;;;;4988306;28;20517;-75
2023/07/28 01:53:23;;;;;;;7.55;3.70;;;;;;;;;;5003949;28;20117;-75
2023/07/28 01:55:49;;;;;;;6.00;3.90;;;;;;;;;;5009616;28;20089;-75
2023/07/28 01:58:15;;;;;;;7.97;3.65;;;;;;;;;;5010934;28;20028;-75
2023/07/28 02:00:41;;;;;;;7.65;3.70;;;;;;;;;;5010777;28;20025;-76
2023/07/28 02:03:07;;;;;;;6.95;4.25;;;384.60;2329.60;;;;;;5033087;28;20497;-75
2023/07/28 02:05:32;;;;;;;6.05;4.10;;;384.30;2329.60;;;;;;5050100;28;20033;-76
2023/07/28 02:07:58;;;;;;;5.70;3.88;;;384.30;2329.60;;;;;;5034260;28;20029;-75
2023/07/28 02:10:26;;;;;;;6.97;3.55;;;384.30;2329.60;;;;;;5034570;28;20028;-75
2023/07/28 02:12:52;;;;;;;6.78;4.20;;;384.40;2329.60;;;;;;5014189;28;20041;-75
2023/07/28 02:15:18;;;;;;;4.70;3.42;;;384.40;2201.60;;;;;;5052647;28;20021;-75
2023/07/28 02:17:43;;;;;;;8.82;4.43;;;384.40;2176.00;;;;;;5052505;28;20017;-75
2023/07/28 02:20:12;;;;;;;5.50;3.83;;;384.30;2329.60;;;;;;5052521;28;20029;-78
2023/07/28 02:22:44;;;;;;;7.82;3.67;;;384.40;2329.60;;;;;;5052578;28;20098;-75
2023/07/28 02:25:10;;;;;;;6.03;4.05;;;384.30;2329.60;;;;;;5052390;28;20033;-75
2023/07/28 02:27:37;;;;;;;5.57;3.70;;;384.50;2329.60;;;;;;5052138;28;20024;-75
2023/07/28 02:30:04;;;;;;;5.68;4.25;;;384.20;2329.60;;;;;;5041842;28;20132;-75
2023/07/28 02:32:30;;;;;;;6.00;3.83;;;384.10;2329.60;;;;;;5021534;28;20031;-75
2023/07/28 02:34:56;;;;;;;6.47;4.13;;;384.00;2329.60;;;;;;5051584;28;20096;-74
2023/07/28 02:37:22;;;;;;;7.88;4.30;;;384.00;2329.60;;;;;;5048093;28;20076;-75
2023/07/28 02:39:47;;;;;;;5.13;3.97;;;359.30;2329.60;;;;;;5053588;28;20052;-74
2023/07/28 02:42:13;;;;;;;6.80;3.90;;;359.20;2329.60;;;;;;5034248;28;20021;-75
2023/07/28 02:44:39;;;;;;;5.95;4.28;;;359.30;2329.60;;;;;;5048073;28;20383;-74
2023/07/28 02:47:05;;;;;;;7.75;4.22;;;359.30;2329.60;;;;;;5037888;28;20111;-75
2023/07/28 02:49:31;;;;;;;9.00;4.07;;;359.20;2329.60;;;;;;5056115;28;20096;-75
2023/07/28 02:51:57;;;;;;;7.25;4.65;;;359.30;2329.60;;;;;;5055398;28;20055;-74
2023/07/28 02:54:24;;;;;;;5.85;4.00;;;359.30;2329.60;;;;;;5055674;28;20039;-75
2023/07/28 02:56:50;;;;;;;8.48;4.80;;;359.30;2329.60;;;;;;5055607;28;20020;-74
2023/07/28 02:59:16;;;;;;;6.70;4.13;;;359.30;2329.60;;;;;;5037881;28;20546;-75
2023/07/28 03:01:42;;;;;;;5.88;4.40;;;359.30;2329.60;;;;;;5046361;28;20052;-74
2023/07/28 03:04:07;;;;;;;7.50;4.20;;;359.30;2329.60;;;;;;5052981;28;20360;-74
2023/07/28 03:06:33;;;;;;;7.68;4.05;;;359.30;2329.60;;;;;;5051281;28;20029;-75
2023/07/28 03:08:59;;;;;;;7.20;4.50;;;359.30;2329.60;;;;;;5037305;28;20060;-74
2023/07/28 03:11:25;;;;;;;6.45;4.10;;;359.30;2329.60;;;;;;5055229;28;20054;-74
2023/07/28 03:13:51;;;;;;;6.28;4.13;;;359.20;2329.60;;;;;;5036727;28;20099;-74
2023/07/28 03:16:16;;;;;;;8.25;4.40;;;359.20;2329.60;;;;;;5055465;28;20155;-74
2023/07/28 03:18:42;;;;;;;8.25;4.50;;;359.20;2329.60;;;;;;5053564;28;20024;-74
2023/07/28 03:21:11;;;;;;;8.18;4.97;;;359.20;2329.60;;;;;;5054553;28;20471;-75
2023/07/28 03:23:37;;;;;;;8.13;4.40;;;359.20;2329.60;;;;;;5052059;28;20104;-74
2023/07/28 03:26:02;;;;;;;6.05;4.57;;;359.10;2329.60;;;;;;5036499;28;20506;-75
2023/07/28 03:28:28;;;;;;;6.18;4.38;;;359.10;2329.60;;;;;;5054930;28;20025;-75
2023/07/28 03:30:54;;;;;;;7.07;4.93;;;358.80;2329.60;;;;;;5017949;28;20022;-74
2023/07/28 03:33:19;;;;;;;8.90;4.68;;;358.80;2329.60;;;;;;5052172;28;20078;-75
2023/07/28 03:35:45;;;;;;;7.32;4.57;;;358.70;2329.60;;;;;;5053015;28;20398;-74
2023/07/28 03:38:11;;;;;;;7.80;4.93;;;358.70;2329.60;;;;;;5054651;28;20024;-74
2023/07/28 03:40:36;;;;;;;7.68;5.13;;;358.60;2329.60;;;;;;5053079;28;20084;-75
2023/07/28 03:43:02;;;;;;;6.45;4.55;;;358.70;2329.60;;;;;;5054944;28;20475;-74
2023/07/28 03:45:28;;;;;;;10.35;4.68;;;358.90;2329.60;;;;;;5054606;28;20433;-74
2023/07/28 03:47:54;;;;;;;7.65;4.70;;;358.90;2329.60;;;;;;5054686;28;20021;-75
2023/07/28 03:50:20;;;;;;;6.55;5.03;;;359.00;2329.60;;;;;;5026350;28;20029;-74
2023/07/28 03:52:45;;;;;;;8.23;4.80;;;359.10;2329.60;;;;;;5054557;28;20051;-74
2023/07/28 03:55:11;;;;;;;7.75;4.57;;;359.20;2329.60;;;;;;5036805;28;20471;-75
2023/07/28 03:57:37;;;;;;;6.75;4.65;;;359.20;2329.60;;;;;;5054418;28;20049;-75
2023/07/28 04:00:03;;;;;;;7.15;4.57;;;359.20;2329.60;;;;;;5054067;28;20539;-76
2023/07/28 04:02:29;;;;;;;6.47;4.60;;;359.20;2329.60;;;;;;5053547;28;20379;-74
2023/07/28 04:04:56;;;;;;;8.82;4.90;;;359.20;2329.60;;;;;;5052507;28;20025;-75
2023/07/28 04:07:22;;;;;;;7.07;4.50;;;359.30;2329.60;;;;;;5038855;28;20028;-74
2023/07/28 04:09:47;;;;;;;7.45;4.88;;;384.00;2329.60;;;;;;5052576;28;20053;-74
2023/07/28 04:12:13;;;;;;;6.95;4.90;;;384.00;2329.60;;;;;;5052211;28;20056;-75
2023/07/28 04:14:39;;;;;;;6.40;4.78;;;384.10;2176.00;;;;;;5054039;28;20112;-74
2023/07/28 04:17:05;;;;;;;7.78;4.78;;;384.10;2329.60;;;;;;5053919;28;20025;-75
2023/07/28 04:19:31;;;;;;;8.27;5.32;;;384.20;2329.60;;;;;;5053243;28;20021;-75
2023/07/28 04:21:57;;;;;;;9.48;5.47;;;384.10;2329.60;;;;;;5053840;28;20104;-75
2023/07/28 04:24:23;;;;;;;8.68;5.32;;;384.10;2329.60;;;;;;5053318;28;20108;-75
2023/07/28 04:26:51;;;;;;;9.80;6.07;;;384.10;2329.60;;;;;;5052132;28;20112;-74
2023/07/28 04:29:17;;;;;;;8.13;5.78;;;384.10;2329.60;;;;;;5053738;28;20047;-76
2023/07/28 04:31:43;;;;;;;9.18;5.32;;;384.20;2329.60;;;;;;5053715;28;20021;-75
2023/07/28 04:34:08;;;;;;;7.03;5.32;;;384.30;2329.60;;;;;;5036214;28;20407;-76
2023/07/28 04:36:34;;;;;;;8.30;5.80;;;384.30;2329.60;;;;;;5053561;28;20029;-75
2023/07/28 04:39:00;;;;;;;7.72;5.68;;;384.30;2329.60;;;;;;5043854;28;20049;-75
2023/07/28 04:41:26;;;;;;;9.18;5.70;;;384.40;2329.60;;;;;;5052292;28;20493;-75
2023/07/28 04:43:51;;;;;;;8.18;5.57;;;384.50;2329.60;;;;;;5051863;28;20522;-74
2023/07/28 04:46:17;;;;;;;7.47;5.40;;;409.60;2355.20;;;;;;5053604;28;20025;-75
2023/07/28 04:48:43;;;;;;;7.90;4.85;;;384.80;2329.60;;;;;;5047871;28;20603;-77
2023/07/28 04:51:08;;;;;;;7.28;4.97;;;384.80;2329.60;;;;;;5053481;28;20048;-75
2023/07/28 04:53:34;;;;;;;6.57;5.00;;;409.60;2355.20;;;;;;5053471;28;20013;-75
2023/07/28 04:56:00;;;;;;;7.57;5.47;;;409.60;2355.20;;;;;;5046545;28;20116;-75
2023/07/28 04:58:26;;;;;;;7.78;5.40;;;409.60;2355.20;;;;;;5040045;28;20348;-76
2023/07/28 05:00:52;;;;;;;6.65;4.97;;;409.70;2355.20;;;;;;5033144;28;20044;-76
2023/07/28 05:03:18;;;;;;;7.90;5.38;;;409.80;2355.20;;;;;;5015266;28;20044;-76
2023/07/28 05:05:44;;;;;;;8.38;5.63;;;410.00;2355.20;;;;;;5033667;28;20033;-75
2023/07/28 05:08:10;;;;;;;8.45;5.55;;;410.10;2355.20;;;;;;5033209;28;20097;-77
2023/07/28 05:10:36;;;;;;;9.88;5.38;;;410.20;2355.20;;;;;;5038234;28;20021;-75
2023/07/28 05:13:05;;;;;;;8.52;5.47;;;410.40;2355.20;;;;;;5046369;28;20439;-75
2023/07/28 05:15:31;;;;;;;7.55;5.45;;;410.50;2355.20;;;;;;5048077;28;20025;-75
2023/07/28 05:17:56;;;;;;;8.10;5.75;;;435.20;2355.20;;;;;;5035322;28;20025;-75
2023/07/28 05:20:22;;;;;;;8.88;5.22;;;435.40;2355.20;;;;;;5019735;28;20039;-75
2023/07/28 05:22:48;;;;;;;8.52;5.30;;;435.50;1996.80;;;;;;5029987;28;20021;-75
2023/07/28 05:25:13;;;;;;;7.40;5.10;;;435.60;2355.20;;;;;;5052683;28;20029;-76
2023/07/28 05:27:39;;;;;;;8.70;4.93;;;435.80;2355.20;;;;;;5052822;28;20029;-76
2023/07/28 05:30:06;;;;;;;8.80;4.78;;;435.80;2355.20;;;;;;5041091;28;20029;-76
2023/07/28 05:32:32;;;;;;;7.45;4.93;;;435.90;2355.20;;;;;;5032543;28;20029;-75
2023/07/28 05:34:58;;;;;;;8.35;4.80;;;436.00;2355.20;;;;;;5033364;28;20464;-75
2023/07/28 05:37:24;;;;;;;10.38;5.28;;;436.10;2355.20;;;;;;5033464;28;20110;-75
2023/07/28 05:39:50;;;;;;;9.60;5.07;;;460.80;2380.80;;;;;;5033262;28;20065;-75
2023/07/28 05:42:16;;;;;;;6.90;4.20;;;461.00;2380.80;;;;;;5033163;28;20471;-75
2023/07/28 05:44:41;;;;;;;7.63;4.18;;;461.10;2380.80;;;;;;5033232;28;20033;-76
2023/07/28 05:47:07;;;;;;;6.63;4.30;;;461.10;2380.80;;;;;;5031523;28;20033;-76
2023/07/28 05:49:33;;;;;;;6.32;4.38;;;461.20;2380.80;;;;;;5032621;28;20029;-76
2023/07/28 05:51:59;;;;;;;7.60;3.88;;;461.30;2380.80;;;;;;5020371;28;20404;-75
2023/07/28 05:54:28;;;;;;;7.47;3.97;;;461.40;2380.80;;;;;;5033237;28;20486;-79
2023/07/28 05:56:53;;;;;;;6.53;4.05;;;461.10;2380.80;;;;;;5034452;28;20033;-75
2023/07/28 05:59:19;;;;;;;9.30;4.25;;;461.60;2380.80;;;;;;5033036;28;20489;-75
2023/07/28 06:01:45;;;;;;;9.85;4.40;;;461.60;2380.80;;;;;;5033384;28;20091;-75
2023/07/28 06:04:11;;;;;;;6.55;3.95;;;461.70;2380.80;;;;;;5033104;28;20048;-75
2023/07/28 06:06:36;;;;;;;5.72;3.85;;;486.40;2380.80;;;;;;5015246;28;20384;-76
2023/07/28 06:09:02;;;;;;;5.63;3.80;;;486.50;2380.80;;;;;;5030178;28;20057;-76
2023/07/28 06:11:28;;;;;;;8.05;3.90;;;486.50;2380.80;;;;;;5032209;28;20443;-75
2023/07/28 06:13:53;;;;;;;4.78;3.60;;;486.70;2380.80;;;;;;5035467;28;20368;-77
2023/07/28 06:16:19;;;;;;;6.45;4.15;;;486.80;2380.80;;;;;;5037489;28;20065;-76
2023/07/28 06:18:45;;;;;;;7.43;3.85;;;487.00;2380.80;;;;;;5036837;28;20029;-77
2023/07/28 06:21:11;;;;;;;7.07;3.35;;;487.10;2380.80;;;;;;5037019;28;20072;-75
2023/07/28 06:23:36;;;;;;;7.00;3.50;;;487.20;2380.80;;;;;;5038507;28;20487;-78
2023/07/28 06:26:02;;;;;;;5.72;3.10;;;487.20;2380.80;;;;;;5038084;28;20383;-76
2023/07/28 06:28:28;;;;;;;6.28;3.38;;;512.00;2380.80;;;;;;5037670;28;20060;-76
2023/07/28 06:30:58;;;;;;;8.77;3.40;;;512.00;2380.80;;;;;;5037731;28;20036;-77
2023/07/28 06:33:29;;;;;;;7.97;3.55;;;512.20;2380.80;;;;;;5016482;28;20036;-77
2023/07/28 06:35:55;;;;;;;6.30;3.55;;;512.30;2380.80;;;;;;5036106;28;20124;-77
2023/07/28 06:38:20;;;;;;;6.72;4.05;;;512.40;2380.80;;;;;;5019700;28;20167;-76
2023/07/28 06:40:46;;;;;;;5.32;3.60;;;512.40;2380.80;;;;;;5019214;28;20513;-76
2023/07/28 06:43:12;;;;;;;6.13;3.20;;;512.60;2380.80;;;;;;5037115;28;20018;-77
2023/07/28 06:45:38;;;;;;;7.20;3.55;;;512.90;2380.80;;;;;;5037530;28;20487;-76
2023/07/28 06:48:04;;;;;;;4.32;3.10;;;512.80;2380.80;;;;;;5036574;28;20029;-76
2023/07/28 06:50:29;;;;;;;5.70;3.67;;;512.80;2380.80;;;;;;5034416;28;20024;-76
2023/07/28 06:52:55;;;;;;;12.02;3.60;;;512.90;2380.80;;;;;;5036899;28;20026;-75
2023/07/28 06:55:23;;;;;;;6.50;3.58;;;537.70;2406.40;;;;;;5037598;28;20057;-76
2023/07/28 06:57:49;;;;;;;5.13;3.45;;;537.80;2406.40;;;;;;5036246;28;20021;-77
2023/07/28 07:00:15;;;;;;;7.72;3.58;;;537.90;2406.40;;;;;;5019868;28;20037;-76
2023/07/28 07:02:41;;;;;;;4.70;3.25;;;538.00;2406.40;;;;;;5019332;28;20032;-76
2023/07/28 07:05:07;;;;;;;5.60;3.50;;;538.10;2406.40;;;;;;5039229;28;20030;-78
2023/07/28 07:07:33;;;;;;;5.57;3.00;;;538.00;2406.40;;;;;;5041638;28;20439;-77
2023/07/28 07:09:59;;;;;;;4.75;3.45;;;538.10;2406.40;;;;;;5039107;28;20041;-75
2023/07/28 07:12:25;;;;;;;6.97;3.17;;;538.20;2406.40;;;;;;5039480;28;20018;-77
2023/07/28 07:14:51;;;;;;;5.75;3.42;;;538.30;2406.40;;;;;;5029050;28;20030;-77
2023/07/28 07:17:17;;;;;;;6.70;3.38;;;538.40;2406.40;;;;;;5042054;28;20022;-77
2023/07/28 07:19:43;;;;;;;4.13;3.08;;;538.50;2406.40;;;;;;5041903;28;20034;-77
2023/07/28 07:22:09;;;;;;;7.65;3.70;;;538.50;2406.40;;;;;;5039603;28;20055;-77
2023/07/28 07:24:35;;;;;;;4.57;3.28;;;563.50;2432.00;;;;;;5036215;28;20033;-76
2023/07/28 07:27:01;;;;;;;6.47;3.30;;;;;;;;;;5035050;28;20475;-77
2023/07/28 07:29:27;;;;;;;9.10;3.10;;;564.00;2432.00;;;;;;5037125;28;20522;-78
2023/07/28 07:31:55;;;;;;;5.07;3.15;;;563.80;2432.00;;;;;;5038681;28;20087;-78
2023/07/28 07:34:22;;;;;;;6.47;3.00;;;563.90;2432.00;;;;;;5038160;28;20029;-77
2023/07/28 07:36:47;;;;;;;6.13;2.80;;;588.80;2432.00;;;;;;5036900;28;20450;-78
2023/07/28 07:39:13;;;;;;;6.38;3.13;;;589.00;2432.00;;;;;;5037709;28;20116;-76
2023/07/28 07:41:39;;;;;;;6.05;2.97;;;589.00;2432.00;;;;;;5036104;28;20049;-77
2023/07/28 07:44:05;;;;;;;5.40;2.83;;;589.00;2432.00;;;;;;5037248;28;20025;-77
2023/07/28 07:46:30;;;;;;;4.18;2.45;;;589.10;2432.00;;;;;;5020641;28;20065;-78
2023/07/28 07:48:56;;;;;;;3.97;3.00;;;589.10;2432.00;;;;;;5038292;28;20033;-76
2023/07/28 07:51:22;;;;;;;6.63;2.92;;;589.40;2432.00;;;;;;5039037;28;20103;-77
2023/07/28 07:53:48;;;;;;;5.35;2.90;;;;;;;;;;5037307;28;20030;-77
2023/07/28 07:56:14;;;;;;;5.32;2.50;;;;;;;;;;5038066;28;20022;-78
2023/07/28 07:58:40;;;;;;;5.32;2.72;;;;;;;;;;5036046;28;20029;-76
2023/07/28 08:01:06;;;;;;;3.75;2.88;;;;;;;;;;5038211;28;20391;-77
2023/07/28 08:03:32;;;;;;;4.80;2.53;;;;;;;;;;5038862;28;20080;-77
2023/07/28 08:05:59;;;;;;;5.93;2.85;;;;;;;;;;5043471;28;20441;-76
2023/07/28 08:08:26;;;;;;;8.77;3.10;;;614.70;2406.40;;;;;;5037141;28;20038;-77
2023/07/28 08:10:52;;;;;;;5.10;2.80;;;614.90;2380.80;;;;;;5038443;28;20113;-77
2023/07/28 08:13:18;;;;;;;3.67;2.40;;;614.80;2355.20;;;;;;5038327;28;20053;-77
2023/07/28 08:15:44;;;;;;;4.07;2.42;;;640.00;2304.00;;;;;;5018076;28;20444;-77
2023/07/28 08:18:12;;;;;;;3.03;2.22;;;615.20;2304.00;;;;;;5037879;28;20025;-76
2023/07/28 08:20:37;;;;;;;4.18;2.80;;;615.10;2227.20;;;;;;5037797;28;20029;-77
2023/07/28 08:23:03;;;;;;;5.00;2.42;;;615.20;2252.80;;;;;;5036276;28;20041;-77
2023/07/28 08:25:29;;;;;;;5.72;2.70;;;615.30;2201.60;;;;;;5038806;28;20044;-77
2023/07/28 08:27:54;;;;;;;4.85;2.80;;;615.30;2201.60;;;;;;5037036;28;20459;-77
2023/07/28 08:30:20;;;;;;;3.78;2.15;;;640.00;2227.20;;;;;;5040054;28;20032;-77
2023/07/28 08:32:46;;;;;;;4.97;2.40;;;640.40;2150.40;;;;;;5037109;28;20467;-76
2023/07/28 08:35:12;;;;;;;4.95;2.45;;;640.20;2150.40;;;;;;5034763;28;20160;-77
2023/07/28 08:37:38;;;;;;;4.72;2.35;;;640.40;2124.80;;;;;;5034360;28;20363;-77
2023/07/28 08:40:04;;;;;;;3.17;2.10;;;640.60;2073.60;;;;;;5034721;28;20332;-77
2023/07/28 08:42:35;;;;;;;3.50;2.53;;;640.80;2048.00;;;;;;5033847;28;20028;-78
2023/07/28 08:45:03;;;;;;;3.63;2.17;;;640.80;2073.60;;;;;;5031456;28;20475;-77
2023/07/28 08:47:28;;;;;;;4.90;2.10;;;665.60;2099.20;;;;;;5031152;28;20494;-77
2023/07/28 08:49:54;;;;;;;4.68;2.58;;;665.80;2073.60;;;;;;5034387;28;20108;-76
2023/07/28 08:52:20;;;;;;;3.17;2.35;;;;;;;;;;5034952;28;20031;-77
2023/07/28 08:54:46;;;;;;;2.88;2.17;;;;;;;;;;5035237;28;20108;-77
2023/07/28 08:57:12;;;;;;;5.43;2.40;;;666.20;1945.60;;;;;;5034112;28;20033;-78
2023/07/28 08:59:41;;;;;;;3.70;2.00;;;665.80;1971.20;;;;;;5035901;28;20613;-76
2023/07/28 09:02:09;;;;;;;3.38;2.08;;;666.00;1920.00;;;;;;5028413;28;20380;-77
2023/07/28 09:04:35;;;;;;;6.93;2.30;;;666.20;1868.80;;;;;;5016438;28;20033;-78
2023/07/28 09:07:04;;;;;;;4.72;2.20;;;666.20;1894.40;;;;;;5035442;28;20456;-78
2023/07/28 09:09:32;;;;;;;4.53;2.40;;;666.10;1868.80;;;;;;5034039;28;20049;-76
2023/07/28 09:11:59;;;;;;;3.67;2.10;;;691.20;1843.20;;;;;;5033759;28;20483;-77
2023/07/28 09:14:25;;;;;;;4.40;2.45;;;666.50;1843.20;;;;;;5032663;28;20479;-76
2023/07/28 09:16:52;;;;;;;3.03;2.00;;;691.30;1868.80;;;;;;5030809;28;20017;-78
2023/07/28 09:19:21;;;;;;;3.97;1.88;;;691.30;1817.60;;;;;;5033972;28;20072;-76
2023/07/28 09:22:01;;;;;;;4.88;2.10;;;691.60;1740.80;;;;;;5031973;28;20049;-76
2023/07/28 09:24:33;;;;;;;4.15;2.05;;;691.40;1766.40;;;;;;5023682;28;20041;-77
2023/07/28 09:27:00;;;;;;;2.90;2.20;;;691.80;1766.40;;;;;;5018266;28;20498;-77
2023/07/28 09:29:29;;;;;;;3.95;2.10;;;691.70;1740.80;;;;;;5032196;28;20120;-77
2023/07/28 09:32:04;;;;;;;3.53;2.00;;;691.50;1740.80;;;;;;5032641;28;20041;-78
2023/07/28 09:34:30;;;;;;;4.72;2.45;;;692.00;1740.80;;;;;;5013386;28;20059;-77
2023/07/28 09:37:00;;;;;;;3.65;2.00;;;;;;;;;;5032368;28;20495;-78
2023/07/28 09:39:26;;;;;;;3.00;2.00;;;;;;;;;;5032635;28;20482;-77
2023/07/28 09:41:57;;;;;;;3.10;1.98;;;;;;;;;;5034012;28;20033;-77
2023/07/28 09:44:24;;;;;;;4.22;2.05;;;;;;;;;;5028702;28;20032;-76
2023/07/28 09:46:55;;;;;;;3.55;2.10;;;;;;;;;;5028800;28;20042;-76
2023/07/28 09:49:22;;;;;;;5.93;2.10;;;;;;;;;;5013961;28;20966;-77
2023/07/28 09:51:52;;;;;;;2.72;1.90;;;716.80;1612.80;;;;;;5013960;28;20041;-77
2023/07/28 09:54:27;;;;;;;2.85;2.00;;;692.10;1587.20;;;;;;5037260;28;20028;-76
2023/07/28 09:56:59;;;;;;;2.75;2.00;;;692.00;1587.20;;;;;;5038911;28;20068;-76
2023/07/28 09:59:31;;;;;;;3.85;1.98;;;692.00;1587.20;;;;;;5029442;28;20025;-78
2023/07/28 10:01:58;;;;;;;3.53;1.85;;;717.00;1587.20;;;;;;5014343;28;20037;-77
2023/07/28 10:04:24;;;;;;;3.53;2.05;;;;;;;;;;5030897;28;20029;-78
2023/07/28 10:06:56;;;;;;;4.30;1.90;;;;;;;;;;5031684;28;20048;-77
2023/07/28 10:09:23;;;;;;;4.75;2.00;;;;;;;;;;5014088;28;20057;-77
2023/07/28 10:11:49;;;;;;;4.80;1.90;;;;;;;;;;5029561;28;20072;-76
2023/07/28 10:14:26;;;;;;;4.18;1.88;;;;;;;;;;5031260;28;20073;-77
2023/07/28 10:16:52;;;;;;;3.13;1.77;;;;;;;;;;5030677;28;20021;-76
2023/07/28 10:19:21;;;;;;;2.95;1.85;;;;;;;;;;5030702;28;20040;-76
2023/07/28 10:21:48;;;;;;;4.30;2.00;;;;;;;;;;5030117;28;20122;-76
2023/07/28 10:24:14;;;;;;;2.80;1.90;;;;;;;;;;5029616;28;20108;-78
2023/07/28 10:26:41;;;;;;;3.15;1.95;;;;;;;;;;5031955;28;20029;-78
2023/07/28 10:29:14;;;;;;;3.03;1.70;;;;;;;;;;5042034;28;20102;-78
2023/07/28 10:31:59;;;;;;;3.10;1.70;;;;;;;;;;5014719;28;20033;-78
2023/07/28 10:34:25;;;;;;;3.92;1.80;;;;;;;;;;5023676;28;20036;-78
2023/07/28 10:37:00;;;;;;;4.88;1.45;;;;;;;;;;5030222;28;20034;-77
2023/07/28 10:39:27;;;;;;;3.50;1.40;;;;;;;;;;5013679;28;20057;-78
2023/07/28 10:42:04;;;;;;;2.53;1.77;;;;;;;;;;5028894;28;20040;-78
2023/07/28 10:44:30;;;;;;;2.35;1.70;;;;;;;;;;5031754;28;20037;-77
2023/07/28 10:46:57;;;;;;;3.33;1.70;;;;;;;;;;5048459;28;20414;-77
2023/07/28 10:49:25;;;;;;;2.72;1.50;;;;;;;;;;5048288;28;20155;-77
2023/07/28 10:51:51;;;;;;;2.28;1.60;;;;;;;;;;5051788;28;20021;-77
2023/07/28 10:54:19;;;;;;;2.65;1.50;;;;;;;;;;5045765;28;20084;-77
2023/07/28 10:56:46;;;;;;;4.30;1.50;;;;;;;;;;5045379;28;20107;-77
2023/07/28 10:59:12;;;;;;;2.05;1.40;;;;;;;;;;5039919;28;20387;-78
2023/07/28 11:01:39;;;;;;;4.22;2.20;;;;;;;;;;5054153;28;20553;-78
2023/07/28 11:04:11;;;;;;;2.75;1.70;;;;;;;;;;5031948;28;20047;-78
2023/07/28 11:06:42;;;;;;;2.05;1.55;;;;;;;;;;5032796;28;20095;-78
2023/07/28 11:09:09;;;;;;;3.20;2.00;;;;;;;;;;5039744;28;20044;-78
2023/07/28 11:11:36;;;;;;;3.75;2.17;;;;;;;;;;5034712;28;20402;-77
2023/07/28 11:14:03;;;;;;;2.58;1.70;;;;;;;;;;5034772;28;20442;-77
2023/07/28 11:16:29;;;;;;;2.72;1.95;;;;;;;;;;5009567;28;20086;-78
2023/07/28 11:18:57;;;;;;;7.28;5.30;;;;;;;;;;5031625;28;20068;-77
2023/07/28 11:21:23;;;;;;;5.53;2.53;;;;;;;;;;5032869;28;20052;-80
2023/07/28 11:23:50;;;;;;;2.97;2.00;;;;;;;;;;5032797;28;20064;-78
2023/07/28 11:26:17;;;;;;;3.28;1.73;;;;;;;;;;5033566;28;20041;-78
2023/07/28 11:28:44;;;;;;;3.35;2.20;;;;;;;;;;5034783;28;20025;-79
2023/07/28 11:31:10;;;;;;;4.90;2.40;;;;;;;;;;5032910;28;20030;-78
2023/07/28 11:33:36;;;;;;;3.05;1.67;;;;;;;;;;5034012;28;20014;-78
2023/07/28 11:36:02;;;;;;;2.55;1.90;;;;;;;;;;5033572;28;20384;-78
2023/07/28 11:38:29;;;;;;;2.72;1.73;;;;;;;;;;5034123;28;20033;-78
2023/07/28 11:40:57;;;;;;;3.97;1.85;;;;;;;;;;5030756;28;20040;-78
2023/07/28 11:43:23;;;;;;;2.80;1.67;;;;;;;;;;5034063;28;20478;-77
2023/07/28 11:45:50;;;;;;;3.05;1.80;;;;;;;;;;5031950;28;20140;-77
2023/07/28 11:48:17;;;;;;;3.28;1.90;;;;;;;;;;5034115;28;20026;-77
2023/07/28 11:50:45;;;;;;;3.20;1.65;;;;;;;;;;5033138;28;20048;-79
2023/07/28 11:53:11;;;;;;;2.58;1.60;;;;;;;;;;5032961;28;20083;-77
2023/07/28 11:55:38;;;;;;;3.00;1.50;;;;;;;;;;5033470;28;20039;-78
2023/07/28 11:58:07;;;;;;;2.30;1.60;;;;;;;;;;5034370;28;20025;-79
2023/07/28 12:00:39;;;;;;;2.83;1.70;;;;;;;;;;5032482;28;20041;-77
2023/07/28 12:03:12;;;;;;;2.53;1.60;;;;;;;;;;5034273;28;20434;-77
2023/07/28 12:05:39;;;;;;;2.92;1.50;;;;;;;;;;5025579;28;20396;-79
2023/07/28 12:08:05;;;;;;;4.03;1.65;;;;;;;;;;5032817;28;20120;-79
2023/07/28 12:10:31;;;;;;;2.45;1.60;;;;;;;;;;5030677;28;20507;-79
2023/07/28 12:13:04;;;;;;;3.22;1.80;;;;;;;;;;5033368;28;20083;-78
2023/07/28 12:15:31;;;;;;;2.92;1.90;;;;;;;;;;5032038;28;20036;-78
2023/07/28 12:18:02;;;;;;;3.00;1.50;;;;;;;;;;5033903;28;20427;-78
2023/07/28 12:20:34;;;;;;;2.72;2.05;;;;;;;;;;5033182;28;20088;-78
2023/07/28 12:23:00;;;;;;;2.95;1.60;;;;;;;;;;5033768;28;20033;-79
2023/07/28 12:25:26;;;;;;;2.30;1.80;;;;;;;;;;5032218;28;20049;-78
2023/07/28 12:27:52;;;;;;;2.58;1.92;;;794.10;1510.40;;;;;;5031881;28;20065;-78
2023/07/28 12:30:18;;;;;;;3.10;1.80;;;;;;;;;;5032715;28;20069;-80
2023/07/28 12:32:44;;;;;;;2.88;1.90;;;;;;;;;;5029617;28;20522;-79
2023/07/28 12:35:11;;;;;;;2.97;1.70;;;;;;;;;;5014182;28;20040;-79
2023/07/28 12:37:37;;;;;;;3.33;1.70;;;;;;;;;;5031210;28;20023;-77
2023/07/28 12:40:05;;;;;;;2.08;1.60;;;;;;;;;;5028931;28;20022;-79
2023/07/28 12:42:31;;;;;;;3.75;1.90;;;;;;;;;;5023047;28;20399;-79
2023/07/28 12:44:57;;;;;;;3.05;1.77;;;;;;;;;;5025486;28;20041;-78
2023/07/28 12:47:23;;;;;;;3.00;1.70;;;;;;;;;;5031003;28;20105;-78
2023/07/28 12:49:49;;;;;;;4.68;1.90;;;;;;;;;;5032256;28;20033;-78
2023/07/28 12:52:15;;;;;;;4.35;2.10;;;;;;;;;;5032222;28;20088;-78